createdAt,value
2022-11-02T00:01:03.541Z,54.22
2022-11-02T00:04:10.342Z,53.93
2022-11-02T00:07:15.455Z,54.04
2022-11-02T00:10:22.348Z,53.13
2022-11-02T00:13:28.522Z,53.80
2022-11-02T00:16:35.626Z,53.99
2022-11-02T00:19:35.055Z,54.30
2022-11-02T00:22:40.787Z,54.86
2022-11-02T00:25:47.153Z,54.61
2022-11-02T00:28:53.740Z,54.95
2022-11-02T00:32:00.138Z,55.01
2022-11-02T00:35:06.171Z,55.44
2022-11-02T00:38:12.379Z,55.47
2022-11-02T00:41:19.292Z,55.50
2022-11-02T00:44:24.678Z,55.17
2022-11-02T00:47:30.480Z,55.69
2022-11-02T00:50:35.910Z,56.03
2022-11-02T00:53:42.176Z,56.02
2022-11-02T00:56:47.902Z,56.67
2022-11-02T00:59:54.475Z,57.14
2022-11-02T01:03:01.334Z,57.15
2022-11-02T01:06:06.416Z,57.58
2022-11-02T01:09:05.699Z,57.91
2022-11-02T01:12:12.423Z,57.78
2022-11-02T01:15:18.342Z,58.07
2022-11-02T01:18:25.322Z,57.84
2022-11-02T01:21:31.502Z,57.90
2022-11-02T01:24:38.609Z,58.11
2022-11-02T01:27:43.874Z,58.51
2022-11-02T01:30:50.005Z,58.49
2022-11-02T01:34:00.839Z,58.45
2022-11-02T01:37:06.092Z,58.62
2022-11-02T01:40:12.268Z,58.66
2022-11-02T01:43:42.274Z,58.35
2022-11-02T01:46:59.330Z,58.29
2022-11-02T01:50:12.499Z,58.20
2022-11-02T01:53:12.931Z,58.20
2022-11-02T01:56:19.133Z,58.31
2022-11-02T01:59:31.733Z,58.24
2022-11-02T02:02:38.997Z,58.40
2022-11-02T02:05:44.181Z,58.29
2022-11-02T02:08:52.840Z,59.11
2022-11-02T02:12:00.239Z,59.25
2022-11-02T02:15:07.173Z,59.33
2022-11-02T02:18:21.076Z,59.04
2022-11-02T02:21:58.147Z,58.75
2022-11-02T02:25:43.468Z,59.03
2022-11-02T02:29:03.305Z,60.01
2022-11-02T02:32:17.314Z,60.91
2022-11-02T02:36:04.085Z,61.03
2022-11-02T02:39:25.680Z,60.98
2022-11-02T02:42:35.563Z,61.33
2022-11-02T02:45:56.354Z,61.13
2022-11-02T02:49:02.134Z,59.34
2022-11-02T02:52:08.356Z,59.37
2022-11-02T02:55:14.532Z,59.53
2022-11-02T02:58:22.072Z,59.14
2022-11-02T03:01:29.350Z,60.10
2022-11-02T03:04:28.293Z,59.01
2022-11-02T03:07:44.690Z,60.06
2022-11-02T03:10:54.285Z,59.58
2022-11-02T03:14:12.133Z,59.73
2022-11-02T03:17:35.082Z,59.28
2022-11-02T03:21:00.329Z,59.37
2022-11-02T03:24:22.897Z,59.31
2022-11-02T03:27:47.186Z,59.66
2022-11-02T03:31:13.626Z,58.77
2022-11-02T03:34:45.334Z,58.94
2022-11-02T03:37:56.965Z,58.88
2022-11-02T03:41:04.730Z,58.61
2022-11-02T03:44:25.215Z,58.02
2022-11-02T03:47:33.225Z,58.07
2022-11-02T03:50:42.472Z,58.48
2022-11-02T03:54:20.785Z,58.55
2022-11-02T03:57:31.173Z,58.03
2022-11-02T04:00:38.874Z,58.08
2022-11-02T04:03:37.919Z,57.72
2022-11-02T04:06:38.402Z,57.58
2022-11-02T04:09:43.993Z,57.53
2022-11-02T04:13:09.023Z,57.67
2022-11-02T04:16:14.715Z,57.77
2022-11-02T04:19:37.525Z,58.04
2022-11-02T04:23:01.424Z,57.04
2022-11-02T04:26:10.555Z,57.84
2022-11-02T04:29:16.830Z,57.51
2022-11-02T04:32:25.149Z,57.63
2022-11-02T04:35:31.611Z,57.09
2022-11-02T04:38:50.288Z,56.97
2022-11-02T04:42:00.678Z,56.54
2022-11-02T04:45:10.737Z,56.32
2022-11-02T04:48:20.977Z,56.31
2022-11-02T04:51:29.446Z,54.82
2022-11-02T04:54:35.667Z,54.44
2022-11-02T05:00:47.780Z,55.16
2022-11-02T05:03:55.557Z,55.49
2022-11-02T05:07:03.353Z,55.38
2022-11-02T05:10:11.505Z,56.04
2022-11-02T05:13:17.943Z,56.35
2022-11-02T05:16:26.644Z,56.54
2022-11-02T05:19:26.372Z,56.81
2022-11-02T05:22:24.992Z,56.56
2022-11-02T05:25:29.711Z,56.37
2022-11-02T05:28:35.600Z,56.06
2022-11-02T05:31:42.444Z,56.23
2022-11-02T05:34:48.144Z,56.98
2022-11-02T05:37:54.912Z,56.77
2022-11-02T05:41:11.685Z,56.80
2022-11-02T05:44:17.739Z,56.94
2022-11-02T05:47:23.877Z,56.41
2022-11-02T05:50:30.832Z,56.28
2022-11-02T05:53:29.865Z,56.23
2022-11-02T05:56:35.802Z,55.91
2022-11-02T05:59:43.876Z,55.73
2022-11-02T06:02:49.622Z,55.45
2022-11-02T06:05:55.866Z,55.39
2022-11-02T06:09:06.925Z,55.39
2022-11-02T06:12:11.438Z,55.10
2022-11-02T06:15:18.991Z,55.27
2022-11-02T06:18:25.499Z,55.32
2022-11-02T06:21:32.206Z,55.45
2022-11-02T06:24:39.577Z,55.43
2022-11-02T06:27:46.086Z,55.26
2022-11-02T06:30:52.631Z,55.48
2022-11-02T06:33:58.954Z,55.85
2022-11-02T06:37:05.538Z,55.49
2022-11-02T06:40:11.744Z,56.05
2022-11-02T06:43:19.395Z,56.43
2022-11-02T06:46:25.266Z,56.66
2022-11-02T06:49:31.463Z,57.58
2022-11-02T06:52:30.458Z,57.86
2022-11-02T06:55:16.851Z,57.71
2022-11-02T06:58:10.305Z,57.34
2022-11-02T07:01:02.936Z,57.56
2022-11-02T07:04:02.420Z,57.53
2022-11-02T07:07:08.415Z,57.08
2022-11-02T07:10:15.975Z,57.07
2022-11-02T07:13:22.259Z,56.70
2022-11-02T07:16:29.854Z,56.97
2022-11-02T07:19:36.272Z,56.66
2022-11-02T07:22:43.108Z,55.90
2022-11-02T07:25:48.330Z,54.95
2022-11-02T07:28:55.276Z,54.63
2022-11-02T07:32:04.319Z,54.51
2022-11-02T07:35:04.451Z,53.90
2022-11-02T07:38:12.481Z,53.87
2022-11-02T07:41:17.383Z,53.28
2022-11-02T07:44:22.909Z,52.64
2022-11-02T07:47:28.719Z,52.58
2022-11-02T07:50:36.794Z,52.27
2022-11-02T07:53:42.703Z,51.85
2022-11-02T07:56:48.694Z,51.88
2022-11-02T07:59:55.721Z,51.63
2022-11-02T08:03:04.817Z,51.01
2022-11-02T08:06:10.860Z,50.22
2022-11-02T08:09:16.997Z,50.08
2022-11-02T08:12:22.762Z,50.07
2022-11-02T08:15:27.841Z,49.73
2022-11-02T08:18:35.653Z,49.47
2022-11-02T08:21:40.853Z,49.24
2022-11-02T08:24:46.112Z,49.22
2022-11-02T08:27:52.126Z,49.13
2022-11-02T08:30:57.463Z,48.72
2022-11-02T08:34:03.403Z,48.07
2022-11-02T08:37:10.073Z,48.43
2022-11-02T08:40:16.219Z,48.61
2022-11-02T08:43:23.944Z,48.68
2022-11-02T08:46:31.320Z,48.76
2022-11-02T08:49:37.214Z,48.54
2022-11-02T08:52:42.733Z,47.80
2022-11-02T08:55:49.667Z,47.39
2022-11-02T08:58:59.287Z,47.26
2022-11-02T09:02:05.312Z,47.12
2022-11-02T09:05:12.292Z,47.48
2022-11-02T09:11:31.677Z,47.09
2022-11-02T09:14:37.615Z,46.93
2022-11-02T09:17:44.124Z,47.49
2022-11-02T09:20:50.215Z,47.62
2022-11-02T09:23:56.742Z,47.70
2022-11-02T09:27:03.337Z,47.79
2022-11-02T09:30:10.033Z,47.62
2022-11-02T09:33:20.097Z,46.64
2022-11-02T09:36:26.675Z,46.20
2022-11-02T09:39:33.472Z,45.76
2022-11-02T09:43:09.708Z,45.25
2022-11-02T09:46:33.903Z,45.13
2022-11-02T09:49:41.698Z,45.28
2022-11-02T09:52:50.838Z,44.49
2022-11-02T09:56:01.738Z,44.46
2022-11-02T09:59:16.499Z,44.32
2022-11-02T10:02:52.384Z,44.69
2022-11-02T10:06:07.313Z,45.20
2022-11-02T10:09:34.909Z,45.08
2022-11-02T10:13:20.358Z,45.71
2022-11-02T10:16:35.778Z,45.65
2022-11-02T10:19:41.941Z,45.30
2022-11-02T10:22:51.490Z,45.22
2022-11-02T10:25:58.265Z,45.60
2022-11-02T10:29:05.065Z,45.77
2022-11-02T10:32:04.081Z,45.44
2022-11-02T10:34:59.333Z,44.86
2022-11-02T10:38:14.763Z,44.57
2022-11-02T10:41:47.540Z,45.19
2022-11-02T10:45:23.614Z,44.67
2022-11-02T10:48:53.100Z,45.17
2022-11-02T10:51:59.108Z,44.73
2022-11-02T10:55:05.486Z,44.33
2022-11-02T10:58:06.782Z,44.50
2022-11-02T11:01:03.002Z,44.69
2022-11-02T11:04:17.970Z,45.12
2022-11-02T11:07:38.473Z,45.80
2022-11-02T11:10:52.692Z,45.82
2022-11-02T11:20:17.439Z,45.35
2022-11-02T11:23:39.364Z,45.48
2022-11-02T11:26:46.411Z,46.03
2022-11-02T11:29:58.059Z,45.92
2022-11-02T11:33:04.521Z,46.19
2022-11-02T11:36:09.593Z,45.98
2022-11-02T11:39:20.935Z,46.28
2022-11-02T11:42:34.619Z,46.93
2022-11-02T11:46:08.019Z,46.64
2022-11-02T11:49:14.552Z,46.78
2022-11-02T11:52:19.937Z,47.01
2022-11-02T11:55:40.493Z,47.33
2022-11-02T11:58:50.599Z,47.64
2022-11-02T12:01:57.037Z,47.18
2022-11-02T12:05:03.857Z,48.67
2022-11-02T12:08:25.972Z,48.70
2022-11-02T12:11:43.503Z,47.94
2022-11-02T12:15:07.028Z,48.12
2022-11-02T12:18:29.847Z,47.58
2022-11-02T12:21:42.823Z,47.32
2022-11-02T12:25:07.702Z,47.25
2022-11-02T12:28:36.451Z,48.34
2022-11-02T12:31:58.112Z,48.49
2022-11-02T12:35:34.735Z,47.31
2022-11-02T12:39:09.522Z,47.80
2022-11-02T12:42:43.728Z,48.39
2022-11-02T12:46:28.079Z,48.62
2022-11-02T12:49:52.977Z,49.19
2022-11-02T12:53:15.030Z,49.60
2022-11-02T12:56:25.210Z,50.36
2022-11-02T12:59:45.295Z,50.72
2022-11-02T13:03:12.100Z,50.66
2022-11-02T13:06:22.409Z,50.22
2022-11-02T13:09:39.099Z,49.98
2022-11-02T13:12:46.772Z,50.39
2022-11-02T13:15:53.409Z,50.15
2022-11-02T13:19:07.406Z,50.45
2022-11-02T13:22:05.994Z,50.84
2022-11-02T13:24:54.848Z,51.09
2022-11-02T13:27:55.789Z,51.49
2022-11-02T13:30:40.927Z,52.21
2022-11-02T13:33:36.600Z,51.84
2022-11-02T13:36:29.899Z,52.19
2022-11-02T13:39:55.680Z,52.49
2022-11-02T13:43:22.282Z,52.22
2022-11-02T13:46:38.272Z,51.86
2022-11-02T13:49:58.277Z,51.76
2022-11-02T13:53:11.469Z,53.16
2022-11-02T13:56:24.505Z,53.39
2022-11-02T13:59:49.064Z,55.29
2022-11-02T14:02:56.225Z,55.75
2022-11-02T14:06:11.889Z,55.75
2022-11-02T14:09:19.429Z,53.53
2022-11-02T14:12:38.619Z,55.60
2022-11-02T14:15:51.645Z,56.74
2022-11-02T14:18:58.387Z,55.38
2022-11-02T14:22:19.806Z,54.03
2022-11-02T14:25:30.540Z,54.24
2022-11-02T14:28:49.833Z,54.53
2022-11-02T14:31:56.524Z,55.89
2022-11-02T14:35:21.683Z,55.63
2022-11-02T14:38:44.528Z,54.45
2022-11-02T14:42:03.869Z,54.57
2022-11-02T14:45:35.751Z,54.55
2022-11-02T14:48:40.387Z,54.69
2022-11-02T14:51:50.759Z,54.73
2022-11-02T14:55:36.086Z,55.44
2022-11-02T14:58:48.681Z,55.31
2022-11-02T15:02:05.752Z,55.80
2022-11-02T15:05:09.054Z,56.02
2022-11-02T15:08:35.348Z,56.41
2022-11-02T15:12:03.402Z,56.43
2022-11-02T15:15:12.325Z,56.53
2022-11-02T15:18:48.912Z,56.15
2022-11-02T15:21:54.672Z,56.41
2022-11-02T15:25:00.652Z,57.43
2022-11-02T15:28:09.358Z,57.18
2022-11-02T15:31:26.063Z,57.63
2022-11-02T15:34:31.547Z,58.65
2022-11-02T15:38:03.452Z,59.20
2022-11-02T15:41:06.287Z,59.65
2022-11-02T15:44:38.868Z,60.13
2022-11-02T15:48:26.111Z,60.40
2022-11-02T15:51:39.036Z,60.43
2022-11-02T15:55:01.868Z,62.41
2022-11-02T15:58:44.992Z,61.25
2022-11-02T16:01:50.664Z,61.52
2022-11-02T16:05:01.446Z,60.87
2022-11-02T16:08:11.955Z,60.63
2022-11-02T16:11:26.844Z,59.94
2022-11-02T16:14:33.064Z,61.12
2022-11-02T16:17:44.096Z,60.94
2022-11-02T16:20:50.772Z,61.50
2022-11-02T16:23:58.617Z,61.91
2022-11-02T16:27:06.091Z,62.46
2022-11-02T16:30:12.560Z,61.57
2022-11-02T16:33:19.273Z,61.20
2022-11-02T16:36:21.371Z,60.84
2022-11-02T16:39:44.016Z,61.19
2022-11-02T16:42:48.497Z,60.47
2022-11-02T16:45:54.145Z,61.74
2022-11-02T16:49:20.668Z,62.98
2022-11-02T16:52:40.860Z,63.55
2022-11-02T16:55:59.798Z,63.88
2022-11-02T16:59:06.656Z,63.21
2022-11-02T17:02:14.944Z,65.06
2022-11-02T17:05:37.219Z,65.60
2022-11-02T17:08:51.519Z,65.24
2022-11-02T17:11:57.693Z,66.95
2022-11-02T17:15:04.193Z,67.50
2022-11-02T17:18:39.246Z,68.35
2022-11-02T17:21:39.217Z,68.06
2022-11-02T17:24:46.792Z,68.42
2022-11-02T17:27:52.533Z,68.47
2022-11-02T17:30:58.866Z,68.94
2022-11-02T17:34:04.657Z,69.56
2022-11-02T17:37:10.253Z,67.30
2022-11-02T17:40:17.269Z,67.05
2022-11-02T17:43:23.652Z,67.12
2022-11-02T17:46:29.431Z,68.03
2022-11-02T17:49:35.000Z,68.09
2022-11-02T17:52:42.676Z,68.11
2022-11-02T17:55:49.558Z,68.62
2022-11-02T17:58:56.381Z,68.64
2022-11-02T18:02:03.857Z,68.45
2022-11-02T18:05:08.993Z,71.22
2022-11-02T18:08:17.648Z,72.32
2022-11-02T18:11:22.096Z,71.83
2022-11-02T18:14:06.536Z,72.75
2022-11-02T18:17:00.469Z,73.27
2022-11-02T18:19:46.572Z,74.19
2022-11-02T18:22:38.756Z,74.42
2022-11-02T18:25:37.060Z,74.19
2022-11-02T18:28:43.037Z,74.14
2022-11-02T18:31:48.915Z,74.59
2022-11-02T18:34:53.995Z,74.43
2022-11-02T18:37:59.592Z,74.75
2022-11-02T18:41:05.231Z,74.61
2022-11-02T18:44:15.610Z,75.27
2022-11-02T18:47:21.322Z,74.06
2022-11-02T18:50:28.030Z,74.93
2022-11-02T18:53:34.265Z,74.17
2022-11-02T18:56:40.079Z,74.55
2022-11-02T18:59:39.297Z,74.40
2022-11-02T19:02:45.733Z,74.17
2022-11-02T19:06:09.159Z,74.11
2022-11-02T19:09:26.751Z,74.70
2022-11-02T19:12:34.576Z,73.21
2022-11-02T19:15:42.715Z,73.92
2022-11-02T19:18:41.731Z,73.44
2022-11-02T19:21:27.687Z,73.90
2022-11-02T19:24:20.151Z,74.27
2022-11-02T19:27:15.317Z,73.70
2022-11-02T19:30:22.575Z,74.04
2022-11-02T19:33:27.388Z,74.12
2022-11-02T19:36:33.230Z,73.11
2022-11-02T19:39:38.181Z,73.69
2022-11-02T19:42:44.124Z,74.90
2022-11-02T19:45:50.310Z,74.84
2022-11-02T19:48:54.786Z,75.02
2022-11-02T19:52:00.513Z,74.75
2022-11-02T19:55:06.601Z,74.89
2022-11-02T19:58:13.181Z,75.41
2022-11-02T20:01:25.074Z,75.39
2022-11-02T20:04:30.527Z,74.01
2022-11-02T20:07:36.636Z,73.84
2022-11-02T20:10:42.713Z,74.02
2022-11-02T20:13:51.088Z,73.69
2022-11-02T20:17:17.838Z,74.33
2022-11-02T20:20:06.020Z,74.54
2022-11-02T20:23:12.853Z,76.58
2022-11-02T20:26:21.140Z,74.70
2022-11-02T20:29:26.699Z,75.69
2022-11-02T20:32:32.455Z,73.99
2022-11-02T20:35:37.422Z,74.04
2022-11-02T20:38:44.008Z,74.46
2022-11-02T20:41:50.847Z,74.20
2022-11-02T20:44:56.525Z,74.13
2022-11-02T20:48:03.877Z,74.09
2022-11-02T20:51:10.524Z,74.29
2022-11-02T20:54:15.562Z,73.85
2022-11-02T20:57:21.718Z,74.44
2022-11-02T21:00:28.993Z,73.69
2022-11-02T21:03:35.155Z,73.84
2022-11-02T21:06:40.843Z,73.39
2022-11-02T21:09:47.134Z,73.23
2022-11-02T21:13:10.874Z,74.09
2022-11-02T21:16:17.963Z,73.14
2022-11-02T21:19:23.986Z,73.16
2022-11-02T21:22:29.713Z,73.75
2022-11-02T21:25:34.954Z,73.67
2022-11-02T21:28:45.633Z,72.97
2022-11-02T21:31:52.115Z,72.95
2022-11-02T21:34:57.160Z,72.69
2022-11-02T21:38:06.958Z,73.20
2022-11-02T21:41:19.221Z,73.58
2022-11-02T21:44:25.465Z,73.67
2022-11-02T21:47:32.373Z,72.58
2022-11-02T21:50:38.127Z,72.96
2022-11-02T21:53:44.544Z,72.62
2022-11-02T21:56:53.750Z,72.68
2022-11-02T22:00:00.247Z,72.00
2022-11-02T22:03:08.611Z,71.96
2022-11-02T22:06:14.105Z,71.91
2022-11-02T22:09:20.791Z,71.76
2022-11-02T22:12:44.234Z,71.77
2022-11-02T22:15:50.670Z,71.78
2022-11-02T22:18:56.243Z,71.81
2022-11-02T22:22:02.748Z,71.79
2022-11-02T22:25:09.427Z,72.16
2022-11-02T22:28:16.231Z,72.36
2022-11-02T22:31:23.970Z,72.45
2022-11-02T22:34:29.864Z,71.91
2022-11-02T22:37:53.375Z,72.08
2022-11-02T22:40:59.853Z,71.99
2022-11-02T22:44:09.763Z,70.53
2022-11-02T22:47:16.496Z,71.55
2022-11-02T22:50:26.716Z,71.68
2022-11-02T22:53:30.983Z,72.12
2022-11-02T22:56:38.662Z,72.11
2022-11-02T22:59:44.367Z,72.07
2022-11-02T23:02:50.458Z,72.40
2022-11-02T23:05:58.299Z,72.24
2022-11-02T23:09:05.413Z,71.78
2022-11-02T23:12:10.206Z,71.26
2022-11-02T23:15:16.145Z,71.91
2022-11-02T23:18:21.989Z,71.76
2022-11-02T23:21:28.367Z,71.40
2022-11-02T23:24:52.097Z,70.63
2022-11-02T23:28:26.986Z,71.38
2022-11-02T23:31:51.274Z,71.82
2022-11-02T23:35:14.949Z,71.73
2022-11-02T23:38:21.001Z,71.31
2022-11-02T23:41:26.541Z,71.30
2022-11-02T23:44:32.012Z,71.39
2022-11-02T23:47:55.697Z,71.75
2022-11-02T23:51:20.855Z,71.75
2022-11-02T23:54:43.693Z,72.32
2022-11-02T23:57:49.444Z,72.34
